Time;durP1;ratioP1;P1;durP2;ratioP2;P2;SDS_P1;SDS_P2;PMS_P1;PMS_P2;Temp;Humidity;BMP_temperature;BMP_pressure;BME280_temperature;BME280_humidity;BME280_pressure;Samples;Min_cycle;Max_cycle;Signal;HPM_P1;HPM_P2
2022/08/31 00:04:52;;;;;;;0.40;0.40;;;;;;;;;;10495500;28;20233;-71
2022/08/31 00:09:53;;;;;;;0.35;0.35;;;;;;;;;;10497342;28;20749;-70
2022/08/31 00:14:55;;;;;;;0.40;0.40;;;;;;;;;;10477447;28;20225;-70
2022/08/31 00:19:56;;;;;;;0.35;0.35;;;;;;;;;;10492775;28;20680;-70
2022/08/31 00:24:57;;;;;;;0.50;0.50;;;;;;;;;;10489276;28;20214;-70
2022/08/31 00:29:58;;;;;;;0.40;0.40;;;;;;;;;;10489431;28;20268;-70
2022/08/31 00:34:59;;;;;;;0.40;0.40;;;;;;;;;;10489104;28;20198;-70
2022/08/31 00:40:00;;;;;;;0.40;0.40;;;;;;;;;;10489240;28;20205;-70
2022/08/31 00:45:02;;;;;;;0.50;0.50;;;;;;;;;;10492313;28;20220;-70
2022/08/31 00:50:04;;;;;;;0.57;0.50;;;;;;;;;;10493602;28;20229;-70
2022/08/31 00:55:09;;;;;;;0.40;0.40;;;;;;;;;;10477178;28;20742;-70
2022/08/31 01:00:12;;;;;;;0.40;0.40;;;;;;;;;;10459523;28;20645;-70
2022/08/31 01:05:15;;;;;;;0.40;0.40;;;;;;;;;;10494248;28;20229;-71
2022/08/31 01:10:18;;;;;;;0.30;0.30;;;;;;;;;;10472699;28;20183;-71
2022/08/31 01:15:19;;;;;;;0.20;0.20;;;;;;;;;;10490590;28;20194;-70
2022/08/31 01:20:24;;;;;;;0.30;0.30;;;;;;;;;;10490250;28;20247;-71
2022/08/31 01:25:25;;;;;;;0.30;0.30;;;;;;;;;;10489883;28;20214;-71
2022/08/31 01:30:26;;;;;;;0.30;0.30;;;;;;;;;;10469818;28;20240;-71
2022/08/31 01:35:28;;;;;;;0.38;0.38;;;;;;;;;;10470719;28;20229;-70
2022/08/31 01:40:31;;;;;;;0.30;0.30;;;;;;;;;;10491034;28;20749;-70
2022/08/31 01:45:33;;;;;;;0.30;0.30;;;;;;;;;;10487523;28;20263;-70
2022/08/31 01:50:35;;;;;;;2.40;0.30;;;;;;;;;;10484040;28;20213;-70
2022/08/31 01:55:37;;;;;;;0.22;0.22;;;;;;;;;;10467246;28;20742;-70
2022/08/31 02:00:38;;;;;;;1.75;0.40;;;;;;;;;;10455831;28;20281;-71
2022/08/31 02:05:39;;;;;;;0.40;0.40;;;;;;;;;;10457840;28;20368;-70
2022/08/31 02:10:41;;;;;;;0.30;0.30;;;;;;;;;;10464949;28;20764;-70
2022/08/31 02:15:44;;;;;;;0.30;0.30;;;;;;;;;;10457451;28;21238;-70
2022/08/31 02:20:45;;;;;;;0.40;0.40;;;;;;;;;;10457108;28;20210;-70
2022/08/31 02:25:46;;;;;;;0.30;0.30;;;;;;;;;;10472106;28;20205;-70
2022/08/31 02:30:47;;;;;;;0.35;0.35;;;;;;;;;;10479731;28;20217;-71
2022/08/31 02:35:49;;;;;;;0.30;0.30;;;;;;;;;;10484931;28;20233;-71
2022/08/31 02:40:51;;;;;;;0.25;0.25;;;;;;;;;;10472206;28;20336;-70
2022/08/31 02:45:52;;;;;;;0.30;0.30;;;;;;;;;;10457559;28;20302;-70
2022/08/31 02:51:03;;;;;;;0.30;0.30;;;;;;;;;;10463351;28;20308;-70
2022/08/31 02:56:06;;;;;;;0.30;0.30;;;;;;;;;;10464558;28;20260;-71
2022/08/31 03:01:08;;;;;;;0.40;0.40;;;;;;;;;;10482707;28;20214;-70
2022/08/31 03:06:09;;;;;;;0.40;0.40;;;;;;;;;;10475946;28;20705;-70
2022/08/31 03:11:11;;;;;;;0.40;0.40;;;;;;;;;;10470953;28;20245;-70
2022/08/31 03:16:14;;;;;;;0.30;0.30;;;;;;;;;;10458283;28;20217;-70
2022/08/31 03:21:16;;;;;;;0.52;0.30;;;;;;;;;;10467150;28;20210;-70
2022/08/31 03:26:17;;;;;;;0.30;0.30;;;;;;;;;;10458109;28;20691;-71
2022/08/31 03:31:18;;;;;;;0.30;0.30;;;;;;;;;;10470439;28;20257;-70
2022/08/31 03:36:20;;;;;;;0.40;0.40;;;;;;;;;;10493947;28;20239;-70
2022/08/31 03:41:23;;;;;;;0.40;0.40;;;;;;;;;;10472490;28;20784;-70
2022/08/31 03:46:24;;;;;;;0.30;0.20;;;;;;;;;;10462747;28;20209;-71
2022/08/31 03:51:25;;;;;;;0.25;0.25;;;;;;;;;;10491517;28;20233;-70
2022/08/31 03:56:26;;;;;;;0.28;0.28;;;;;;;;;;10457274;28;20218;-70
2022/08/31 04:01:27;;;;;;;0.30;0.30;;;;;;;;;;10475231;28;20216;-70
2022/08/31 04:06:57;;;;;;;0.30;0.30;;;;;;;;;;10490567;28;20234;-71
2022/08/31 04:12:33;;;;;;;0.30;0.30;;;;;;;;;;10494593;28;20214;-71
2022/08/31 04:17:54;;;;;;;0.30;0.30;;;;;;;;;;10492669;28;20735;-70
2022/08/31 04:23:14;;;;;;;1.10;0.38;;;;;;;;;;10485515;28;20289;-70
2022/08/31 04:28:26;;;;;;;0.20;0.20;;;;;;;;;;10486686;28;20220;-71
2022/08/31 04:33:27;;;;;;;0.30;0.30;;;;;;;;;;10459881;28;20205;-71
2022/08/31 04:38:28;;;;;;;0.30;0.30;;;;;;;;;;10459223;28;20225;-71
2022/08/31 04:43:29;;;;;;;0.40;0.40;;;;;;;;;;10454136;28;20206;-71
2022/08/31 04:48:30;;;;;;;0.30;0.30;;;;;;;;;;10465121;28;20693;-71
2022/08/31 04:53:31;;;;;;;0.30;0.30;;;;;;;;;;10487643;28;20752;-71
2022/08/31 04:58:33;;;;;;;0.30;0.30;;;;;;;;;;10470601;28;20312;-71
2022/08/31 05:03:34;;;;;;;0.30;0.30;;;;;;;;;;10469404;28;20644;-71
2022/08/31 05:08:35;;;;;;;1.08;0.40;;;;;;;;;;10468877;28;20295;-71
2022/08/31 05:13:36;;;;;;;0.38;0.38;;;;;;;;;;10479567;28;20221;-72
2022/08/31 05:18:39;;;;;;;0.40;0.40;;;;;;;;;;10496204;28;20241;-70
2022/08/31 05:23:41;;;;;;;0.20;0.20;;;;;;;;;;10466454;28;20210;-71
2022/08/31 05:28:42;;;;;;;0.35;0.35;;;;;;;;;;10456233;28;20218;-71
2022/08/31 05:33:43;;;;;;;0.40;0.40;;;;;;;;;;10453892;28;20209;-71
2022/08/31 05:38:47;;;;;;;0.57;0.57;;;;;;;;;;10469136;28;20218;-71
2022/08/31 05:43:48;;;;;;;0.45;0.45;;;;;;;;;;10458614;28;20263;-71
2022/08/31 05:48:49;;;;;;;0.50;0.50;;;;;;;;;;10453696;28;20209;-70
2022/08/31 05:53:52;;;;;;;0.50;0.50;;;;;;;;;;10470238;28;20210;-71
2022/08/31 05:58:53;;;;;;;0.30;0.30;;;;;;;;;;10488825;28;20225;-70
2022/08/31 06:03:55;;;;;;;0.50;0.40;;;;;;;;;;10455349;28;20588;-71
2022/08/31 06:08:57;;;;;;;1.05;0.40;;;;;;;;;;10467325;28;20584;-71
2022/08/31 06:14:00;;;;;;;0.40;0.40;;;;;;;;;;10470515;28;20251;-71
2022/08/31 06:19:05;;;;;;;0.85;0.57;;;;;;;;;;10464948;28;20221;-71
2022/08/31 06:24:09;;;;;;;0.35;0.35;;;;;;;;;;10457233;28;20219;-71
2022/08/31 06:29:10;;;;;;;0.40;0.40;;;;;;;;;;10462536;28;20602;-71
2022/08/31 06:34:12;;;;;;;0.50;0.50;;;;;;;;;;10465229;28;20255;-71
2022/08/31 06:39:34;;;;;;;1.55;0.40;;;;;;;;;;10496001;28;20331;-71
2022/08/31 06:44:53;;;;;;;0.50;0.50;;;;;;;;;;10496176;28;20644;-71
2022/08/31 06:49:58;;;;;;;0.38;0.38;;;;;;;;;;10478677;28;20218;-71
2022/08/31 06:54:59;;;;;;;0.40;0.40;;;;;;;;;;10458315;28;20211;-71
2022/08/31 07:00:19;;;;;;;0.40;0.40;;;;;;;;;;10472893;28;20210;-71
2022/08/31 07:05:24;;;;;;;0.40;0.40;;;;;;;;;;10485134;28;20262;-71
2022/08/31 07:10:26;;;;;;;0.30;0.30;;;;;;;;;;10467230;28;20324;-73
2022/08/31 07:15:27;;;;;;;0.40;0.40;;;;;;;;;;10471257;28;20245;-71
2022/08/31 07:20:28;;;;;;;0.40;0.40;;;;;;;;;;10474971;28;20579;-71
2022/08/31 07:25:30;;;;;;;2.20;0.50;;;;;;;;;;10466290;28;20217;-71
2022/08/31 07:30:40;;;;;;;0.47;0.47;;;;;;;;;;10451970;28;20213;-70
2022/08/31 07:35:43;;;;;;;0.50;0.50;;;;;;;;;;10455769;28;20223;-70
2022/08/31 07:46:12;;;;;;;0.73;0.35;;;;;;;;;;10484720;28;20698;-73
2022/08/31 07:51:16;;;;;;;0.40;0.40;;;;;;;;;;10470237;28;20248;-73
2022/08/31 07:56:40;;;;;;;0.73;0.30;;;;;;;;;;10469880;28;20217;-72
2022/08/31 08:01:48;;;;;;;0.30;0.30;;;;;;;;;;10462221;28;20237;-73
2022/08/31 08:06:54;;;;;;;0.30;0.30;;;;;;;;;;10472810;28;20234;-73
2022/08/31 08:12:14;;;;;;;0.28;0.28;;;;;;;;;;10488341;28;20360;-72
2022/08/31 08:17:27;;;;;;;0.30;0.20;;;;;;;;;;10449843;28;20219;-73
2022/08/31 08:22:38;;;;;;;1.23;0.30;;;;;;;;;;10459289;28;20244;-72
2022/08/31 08:27:52;;;;;;;1.55;0.30;;;;;;;;;;10467397;28;20221;-73
2022/08/31 08:33:02;;;;;;;0.43;0.40;;;;;;;;;;10491326;28;20217;-73
2022/08/31 08:38:04;;;;;;;0.43;0.40;;;;;;;;;;10461534;28;20256;-73
2022/08/31 08:43:05;;;;;;;0.28;0.28;;;;;;;;;;10469977;28;20214;-73
2022/08/31 08:48:10;;;;;;;0.30;0.30;;;;;;;;;;10478730;28;20205;-72
2022/08/31 08:53:14;;;;;;;0.63;0.20;;;;;;;;;;10457916;28;20213;-73
2022/08/31 08:58:25;;;;;;;0.30;0.30;;;;;;;;;;10471303;28;20224;-73
2022/08/31 09:03:43;;;;;;;0.98;0.30;;;;;;;;;;10455289;28;20217;-73
2022/08/31 09:08:58;;;;;;;0.20;0.20;;;;;;;;;;10437299;28;20629;-73
2022/08/31 09:14:05;;;;;;;0.30;0.30;;;;;;;;;;10429795;28;20297;-73
2022/08/31 09:19:10;;;;;;;0.73;0.32;;;;;;;;;;10418816;28;20229;-73
2022/08/31 09:24:15;;;;;;;0.30;0.25;;;;;;;;;;10420913;28;20348;-71
2022/08/31 09:29:42;;;;;;;0.17;0.17;;;;;;;;;;10422396;28;20248;-70
2022/08/31 09:34:51;;;;;;;0.20;0.20;;;;;;;;;;10428626;28;20264;-74
2022/08/31 09:39:53;;;;;;;0.20;0.20;;;;;;;;;;10437819;28;20222;-72
2022/08/31 09:44:57;;;;;;;0.25;0.15;;;;;;;;;;10443112;28;20218;-70
2022/08/31 09:49:58;;;;;;;0.28;0.28;;;;;;;;;;10410482;28;20304;-70
2022/08/31 09:55:12;;;;;;;0.30;0.30;;;;;;;;;;10440585;28;20591;-74
2022/08/31 10:00:14;;;;;;;0.20;0.20;;;;;;;;;;10421588;28;20229;-75
2022/08/31 10:05:39;;;;;;;1.65;0.30;;;;;;;;;;10457606;28;20222;-72
2022/08/31 10:10:42;;;;;;;0.20;0.20;;;;;;;;;;10466554;28;20686;-73
2022/08/31 10:16:10;;;;;;;0.20;0.20;;;;;;;;;;10477316;28;20218;-73
2022/08/31 10:21:20;;;;;;;0.20;0.20;;;;;;;;;;10479444;28;20242;-73
2022/08/31 10:26:32;;;;;;;0.15;0.15;;;;;;;;;;10482487;28;20755;-71
2022/08/31 10:31:44;;;;;;;0.20;0.20;;;;;;;;;;10485677;28;20870;-70
2022/08/31 10:36:45;;;;;;;0.20;0.20;;;;;;;;;;10457939;28;20299;-71
2022/08/31 10:41:49;;;;;;;0.28;0.28;;;;;;;;;;10483887;28;20210;-70
2022/08/31 10:46:53;;;;;;;0.20;0.10;;;;;;;;;;10482918;28;22387;-71
2022/08/31 10:52:01;;;;;;;0.17;0.17;;;;;;;;;;10454533;28;20724;-71
2022/08/31 10:57:20;;;;;;;0.10;0.10;;;;;;;;;;10465022;28;20594;-71
2022/08/31 11:02:40;;;;;;;0.13;0.13;;;;;;;;;;10442468;28;20422;-71
2022/08/31 11:07:46;;;;;;;0.15;0.15;;;;;;;;;;10477207;28;20233;-71
2022/08/31 11:13:08;;;;;;;0.10;0.10;;;;;;;;;;10475310;28;20248;-71
2022/08/31 11:18:38;;;;;;;0.10;0.10;;;;;;;;;;10471038;28;20222;-71
2022/08/31 11:23:39;;;;;;;0.10;0.10;;;;;;;;;;10464503;28;20218;-70
2022/08/31 11:28:47;;;;;;;0.20;0.20;;;;;;;;;;10490547;28;20218;-70
2022/08/31 11:33:54;;;;;;;0.20;0.20;;;;;;;;;;10489995;28;20215;-70
2022/08/31 11:39:15;;;;;;;0.10;0.10;;;;;;;;;;10487441;28;20627;-71
2022/08/31 11:44:29;;;;;;;0.20;0.20;;;;;;;;;;10454625;28;20209;-71
2022/08/31 11:49:35;;;;;;;0.10;0.10;;;;;;;;;;10482029;28;20263;-70
2022/08/31 11:54:41;;;;;;;0.10;0.10;;;;;;;;;;10473105;28;20218;-71
2022/08/31 11:59:44;;;;;;;0.10;0.10;;;;;;;;;;10481489;28;20720;-72
2022/08/31 12:04:51;;;;;;;0.17;0.17;;;;;;;;;;10489521;28;20267;-71
2022/08/31 12:10:11;;;;;;;0.35;0.15;;;;;;;;;;10484244;28;21057;-75
2022/08/31 12:15:12;;;;;;;0.10;0.10;;;;;;;;;;10423929;28;20341;-70
2022/08/31 12:20:13;;;;;;;0.15;0.15;;;;;;;;;;10447748;28;20194;-70
2022/08/31 12:25:23;;;;;;;0.20;0.20;;;;;;;;;;10486587;28;20190;-71
2022/08/31 12:30:25;;;;;;;0.38;0.20;;;;;;;;;;10444899;28;20831;-75
2022/08/31 12:35:31;;;;;;;0.10;0.10;;;;;;;;;;10442921;28;20225;-73
2022/08/31 12:40:41;;;;;;;0.80;0.10;;;;;;;;;;10477351;28;20224;-69
2022/08/31 12:45:56;;;;;;;0.10;0.10;;;;;;;;;;10490468;28;20592;-70
2022/08/31 12:50:57;;;;;;;0.13;0.13;;;;;;;;;;10485308;28;21020;-70
2022/08/31 12:56:00;;;;;;;0.10;0.10;;;;;;;;;;10484309;28;20313;-74
2022/08/31 13:01:07;;;;;;;0.20;0.20;;;;;;;;;;10484991;28;20228;-73
2022/08/31 13:06:11;;;;;;;0.20;0.20;;;;;;;;;;10483552;28;21134;-69
2022/08/31 13:11:32;;;;;;;0.10;0.10;;;;;;;;;;10478584;28;20384;-68
2022/08/31 13:16:33;;;;;;;0.10;0.10;;;;;;;;;;10474625;28;20272;-69
2022/08/31 13:21:35;;;;;;;0.10;0.10;;;;;;;;;;10459117;28;20218;-67
2022/08/31 13:26:37;;;;;;;0.10;0.10;;;;;;;;;;10473971;28;20218;-67
2022/08/31 13:31:49;;;;;;;0.17;0.17;;;;;;;;;;10486877;28;21242;-70
2022/08/31 13:36:54;;;;;;;1.08;0.10;;;;;;;;;;10473897;28;20589;-70
2022/08/31 13:42:04;;;;;;;0.10;0.10;;;;;;;;;;10447271;28;20214;-70
2022/08/31 13:47:18;;;;;;;0.10;0.10;;;;;;;;;;10461961;28;20223;-68
2022/08/31 13:52:24;;;;;;;0.10;0.10;;;;;;;;;;10438373;28;20230;-68
2022/08/31 13:57:27;;;;;;;1.27;0.10;;;;;;;;;;10443871;28;20210;-68
2022/08/31 14:02:29;;;;;;;0.10;0.10;;;;;;;;;;10464152;28;21177;-68
2022/08/31 14:07:42;;;;;;;0.10;0.10;;;;;;;;;;10482716;28;20701;-69
2022/08/31 14:12:49;;;;;;;0.30;0.30;;;;;;;;;;10470406;28;20222;-69
2022/08/31 14:17:58;;;;;;;0.20;0.20;;;;;;;;;;10476723;28;20221;-70
2022/08/31 14:23:18;;;;;;;0.10;0.10;;;;;;;;;;10497399;28;20211;-70
2022/08/31 14:28:26;;;;;;;0.15;0.15;;;;;;;;;;10492513;28;20248;-68
2022/08/31 14:33:27;;;;;;;0.10;0.10;;;;;;;;;;10458107;28;20214;-69
2022/08/31 14:38:28;;;;;;;0.10;0.10;;;;;;;;;;10477295;28;20222;-70
2022/08/31 14:43:30;;;;;;;0.15;0.15;;;;;;;;;;10491953;28;20209;-69
2022/08/31 14:48:32;;;;;;;0.10;0.10;;;;;;;;;;10497581;28;20218;-70
2022/08/31 14:53:37;;;;;;;0.10;0.10;;;;;;;;;;10485943;28;20860;-70
2022/08/31 14:58:40;;;;;;;0.10;0.10;;;;;;;;;;10489654;28;20218;-70
2022/08/31 15:03:42;;;;;;;0.10;0.10;;;;;;;;;;10492609;28;20242;-69
2022/08/31 15:08:43;;;;;;;0.10;0.10;;;;;;;;;;10491965;28;20217;-70
2022/08/31 15:13:44;;;;;;;0.10;0.10;;;;;;;;;;10496185;28;20224;-70
2022/08/31 15:18:45;;;;;;;0.10;0.10;;;;;;;;;;10462910;28;20226;-70
2022/08/31 15:23:49;;;;;;;0.10;0.10;;;;;;;;;;10460315;28;20213;-70
2022/08/31 15:28:51;;;;;;;0.10;0.10;;;;;;;;;;10493554;28;20263;-69
2022/08/31 15:33:54;;;;;;;0.10;0.10;;;;;;;;;;10490849;28;20236;-70
2022/08/31 15:38:57;;;;;;;0.10;0.10;;;;;;;;;;10475655;28;20221;-70
2022/08/31 15:43:58;;;;;;;0.20;0.20;;;;;;;;;;10475838;28;20220;-69
2022/08/31 15:48:59;;;;;;;0.10;0.10;;;;;;;;;;10493761;28;21230;-69
2022/08/31 15:54:03;;;;;;;0.20;0.20;;;;;;;;;;10493433;28;20217;-69
2022/08/31 15:59:04;;;;;;;0.10;0.10;;;;;;;;;;10484155;28;20218;-69
2022/08/31 16:04:05;;;;;;;0.20;0.20;;;;;;;;;;10492607;28;20321;-69
2022/08/31 16:09:06;;;;;;;0.10;0.10;;;;;;;;;;10487040;28;20218;-68
2022/08/31 16:14:10;;;;;;;0.20;0.20;;;;;;;;;;10488406;28;20213;-69
2022/08/31 16:19:12;;;;;;;0.10;0.10;;;;;;;;;;10493998;28;20225;-69
2022/08/31 16:24:22;;;;;;;0.10;0.10;;;;;;;;;;10490495;28;20217;-69
2022/08/31 16:29:25;;;;;;;0.10;0.10;;;;;;;;;;10482124;28;20248;-69
2022/08/31 16:34:27;;;;;;;0.20;0.20;;;;;;;;;;10421911;28;20215;-69
2022/08/31 16:39:28;;;;;;;0.10;0.10;;;;;;;;;;10472625;28;20329;-70
2022/08/31 16:44:29;;;;;;;0.20;0.20;;;;;;;;;;10489902;28;21185;-70
2022/08/31 16:49:34;;;;;;;0.10;0.10;;;;;;;;;;10490752;28;20241;-69
2022/08/31 16:54:40;;;;;;;0.10;0.10;;;;;;;;;;10491354;28;20210;-70
2022/08/31 16:59:42;;;;;;;0.20;0.20;;;;;;;;;;10478718;28;20271;-70
2022/08/31 17:04:43;;;;;;;0.10;0.10;;;;;;;;;;10490511;28;20228;-69
2022/08/31 17:09:44;;;;;;;0.20;0.20;;;;;;;;;;10493815;28;20218;-70
2022/08/31 17:14:48;;;;;;;0.20;0.20;;;;;;;;;;10406709;28;20242;-69
2022/08/31 17:19:50;;;;;;;0.10;0.10;;;;;;;;;;10447797;28;20226;-70
2022/08/31 17:24:56;;;;;;;0.10;0.10;;;;;;;;;;10437763;28;20223;-73
2022/08/31 17:29:59;;;;;;;0.10;0.10;;;;;;;;;;10488659;28;20228;-71
2022/08/31 17:35:02;;;;;;;0.10;0.10;;;;;;;;;;10493103;28;20222;-70
2022/08/31 17:40:06;;;;;;;0.20;0.20;;;;;;;;;;10490579;28;20260;-71
2022/08/31 17:45:08;;;;;;;0.10;0.10;;;;;;;;;;10444091;28;20675;-71
2022/08/31 17:50:09;;;;;;;0.80;0.10;;;;;;;;;;10451594;28;20198;-71
2022/08/31 17:55:11;;;;;;;0.20;0.20;;;;;;;;;;10487612;28;20197;-71
2022/08/31 18:00:15;;;;;;;0.10;0.10;;;;;;;;;;10480786;28;20558;-71
2022/08/31 18:05:16;;;;;;;0.10;0.10;;;;;;;;;;10456057;28;20218;-72
2022/08/31 18:10:17;;;;;;;0.32;0.20;;;;;;;;;;10478296;28;21105;-72
2022/08/31 18:15:18;;;;;;;0.10;0.10;;;;;;;;;;10486467;28;20240;-71
2022/08/31 18:20:20;;;;;;;0.10;0.10;;;;;;;;;;10449252;28;20206;-71
2022/08/31 18:25:21;;;;;;;0.20;0.20;;;;;;;;;;10505903;28;20178;-70
2022/08/31 18:30:22;;;;;;;0.13;0.13;;;;;;;;;;10501297;28;20185;-71
2022/08/31 18:35:23;;;;;;;0.20;0.20;;;;;;;;;;10489282;28;20194;-70
2022/08/31 18:45:48;;;;;;;0.20;0.20;;;;;;;;;;10490179;28;20296;-71
2022/08/31 18:50:49;;;;;;;1.20;0.20;;;;;;;;;;10480928;28;20216;-70
2022/08/31 18:55:50;;;;;;;0.75;0.20;;;;;;;;;;10485996;28;20215;-71
2022/08/31 19:00:56;;;;;;;0.20;0.20;;;;;;;;;;10417066;28;20218;-78
2022/08/31 19:05:57;;;;;;;0.38;0.30;;;;;;;;;;10488226;28;20868;-71
2022/08/31 19:10:59;;;;;;;0.32;0.20;;;;;;;;;;10488634;28;20214;-73
2022/08/31 19:16:00;;;;;;;1.38;0.20;;;;;;;;;;10488255;28;20219;-73
2022/08/31 19:21:09;;;;;;;0.55;0.30;;;;;;;;;;10488158;28;20231;-73
2022/08/31 19:26:16;;;;;;;1.23;0.25;;;;;;;;;;10493279;28;20213;-72
2022/08/31 19:31:18;;;;;;;0.68;0.20;;;;;;;;;;10487506;28;20210;-73
2022/08/31 19:36:20;;;;;;;0.20;0.20;;;;;;;;;;10489077;28;20222;-74
2022/08/31 19:41:22;;;;;;;0.30;0.30;;;;;;;;;;10488802;28;20210;-71
2022/08/31 19:46:24;;;;;;;0.20;0.20;;;;;;;;;;10491657;28;20214;-73
2022/08/31 19:51:27;;;;;;;1.85;0.50;;;;;;;;;;10488825;28;20245;-73
2022/08/31 19:56:29;;;;;;;0.20;0.20;;;;;;;;;;10471191;28;20209;-77
2022/08/31 20:01:34;;;;;;;0.20;0.20;;;;;;;;;;10489809;28;20657;-72
2022/08/31 20:06:35;;;;;;;0.22;0.22;;;;;;;;;;10492979;28;20253;-70
2022/08/31 20:11:36;;;;;;;0.20;0.20;;;;;;;;;;10487564;28;20317;-71
2022/08/31 20:16:41;;;;;;;0.20;0.20;;;;;;;;;;10486196;28;20218;-70
2022/08/31 20:21:43;;;;;;;0.40;0.40;;;;;;;;;;10483064;28;20214;-70
2022/08/31 20:26:46;;;;;;;0.20;0.20;;;;;;;;;;10480527;28;20292;-70
2022/08/31 20:31:49;;;;;;;0.30;0.30;;;;;;;;;;10481208;28;20225;-70
2022/08/31 20:36:53;;;;;;;0.28;0.28;;;;;;;;;;10479306;28;20214;-71
2022/08/31 20:41:57;;;;;;;0.20;0.20;;;;;;;;;;10450477;28;20285;-71
2022/08/31 20:52:20;;;;;;;0.30;0.30;;;;;;;;;;10481069;28;20198;-71
2022/08/31 20:57:22;;;;;;;0.20;0.20;;;;;;;;;;10490913;28;20222;-71
2022/08/31 21:02:23;;;;;;;0.20;0.20;;;;;;;;;;10486213;28;20351;-70
2022/08/31 21:07:24;;;;;;;0.20;0.20;;;;;;;;;;10490801;28;20218;-70
2022/08/31 21:12:26;;;;;;;0.20;0.20;;;;;;;;;;10455902;28;20210;-70
2022/08/31 21:17:30;;;;;;;0.20;0.20;;;;;;;;;;10484435;28;20595;-70
2022/08/31 21:22:33;;;;;;;0.20;0.20;;;;;;;;;;10464512;28;20202;-70
2022/08/31 21:27:35;;;;;;;0.20;0.20;;;;;;;;;;10463350;28;20220;-70
2022/08/31 21:32:40;;;;;;;0.30;0.30;;;;;;;;;;10494884;28;20214;-70
2022/08/31 21:37:41;;;;;;;0.20;0.20;;;;;;;;;;10460671;28;20352;-70
2022/08/31 21:42:43;;;;;;;0.20;0.20;;;;;;;;;;10489758;28;20213;-70
2022/08/31 21:47:44;;;;;;;0.20;0.20;;;;;;;;;;10471262;28;20209;-70
2022/08/31 21:52:45;;;;;;;0.20;0.20;;;;;;;;;;10475846;28;20214;-70
2022/08/31 21:57:46;;;;;;;0.20;0.20;;;;;;;;;;10471866;28;20308;-69
2022/08/31 22:02:49;;;;;;;0.30;0.30;;;;;;;;;;10489243;28;20216;-70
2022/08/31 22:07:50;;;;;;;0.20;0.20;;;;;;;;;;10492903;28;20316;-70
2022/08/31 22:12:51;;;;;;;0.40;0.40;;;;;;;;;;10498085;28;20320;-70
2022/08/31 22:17:52;;;;;;;0.20;0.20;;;;;;;;;;10496067;28;20221;-70
2022/08/31 22:22:53;;;;;;;0.20;0.20;;;;;;;;;;10490446;28;20218;-70
2022/08/31 22:27:55;;;;;;;0.20;0.20;;;;;;;;;;10492316;28;20240;-70
2022/08/31 22:32:57;;;;;;;0.30;0.30;;;;;;;;;;10487243;28;20218;-70
2022/08/31 22:37:58;;;;;;;0.20;0.20;;;;;;;;;;10491092;28;20784;-70
2022/08/31 22:42:59;;;;;;;0.30;0.30;;;;;;;;;;10460535;28;20837;-70
2022/08/31 22:48:00;;;;;;;0.50;0.50;;;;;;;;;;10490474;28;20712;-70
2022/08/31 22:53:01;;;;;;;0.20;0.20;;;;;;;;;;10473458;28;20756;-69
2022/08/31 22:58:03;;;;;;;0.30;0.30;;;;;;;;;;10487203;28;20217;-69
2022/08/31 23:03:04;;;;;;;0.20;0.20;;;;;;;;;;10487695;28;20252;-69
2022/08/31 23:08:07;;;;;;;0.30;0.30;;;;;;;;;;10498313;28;20233;-69
2022/08/31 23:13:08;;;;;;;0.40;0.20;;;;;;;;;;10504677;28;20304;-70
2022/08/31 23:18:09;;;;;;;0.90;0.20;;;;;;;;;;10496943;28;20278;-69
2022/08/31 23:23:10;;;;;;;0.50;0.40;;;;;;;;;;10498637;28;20271;-70
2022/08/31 23:28:11;;;;;;;0.30;0.30;;;;;;;;;;10480524;28;20214;-70
2022/08/31 23:33:12;;;;;;;0.30;0.30;;;;;;;;;;10490912;28;20252;-70
2022/08/31 23:38:13;;;;;;;0.30;0.30;;;;;;;;;;10495440;28;20217;-69
2022/08/31 23:43:15;;;;;;;0.30;0.30;;;;;;;;;;10494911;28;20214;-70
2022/08/31 23:48:17;;;;;;;0.30;0.30;;;;;;;;;;10479622;28;20224;-70
2022/08/31 23:53:18;;;;;;;0.30;0.30;;;;;;;;;;10454373;28;20206;-70
2022/08/31 23:58:20;;;;;;;0.20;0.20;;;;;;;;;;10421952;28;20226;-70
